sensor_id;sensor_type;location;lat;lon;timestamp;temperature;humidity
47618;DHT22;33336;36.728;-4.414;2023-05-29T00:04:20;21.80;98.00
47618;DHT22;33336;36.728;-4.414;2023-05-29T00:09:24;21.90;98.10
47618;DHT22;33336;36.728;-4.414;2023-05-29T00:14:29;21.80;98.30
47618;DHT22;33336;36.728;-4.414;2023-05-29T00:19:32;21.80;98.40
47618;DHT22;33336;36.728;-4.414;2023-05-29T00:24:34;21.90;98.10
47618;DHT22;33336;36.728;-4.414;2023-05-29T00:29:39;21.90;98.50
47618;DHT22;33336;36.728;-4.414;2023-05-29T00:34:42;21.80;98.30
47618;DHT22;33336;36.728;-4.414;2023-05-29T00:39:45;21.70;98.50
47618;DHT22;33336;36.728;-4.414;2023-05-29T00:44:50;21.60;98.20
47618;DHT22;33336;36.728;-4.414;2023-05-29T00:49:54;21.70;98.00
47618;DHT22;33336;36.728;-4.414;2023-05-29T00:54:58;21.60;98.00
47618;DHT22;33336;36.728;-4.414;2023-05-29T01:00:06;21.60;97.80
47618;DHT22;33336;36.728;-4.414;2023-05-29T01:05:10;21.50;98.10
47618;DHT22;33336;36.728;-4.414;2023-05-29T01:10:14;21.50;98.00
47618;DHT22;33336;36.728;-4.414;2023-05-29T01:15:28;21.40;97.80
47618;DHT22;33336;36.728;-4.414;2023-05-29T01:20:37;21.40;97.90
47618;DHT22;33336;36.728;-4.414;2023-05-29T01:26:05;21.30;98.10
47618;DHT22;33336;36.728;-4.414;2023-05-29T01:31:13;21.20;98.10
47618;DHT22;33336;36.728;-4.414;2023-05-29T01:36:16;21.00;98.50
47618;DHT22;33336;36.728;-4.414;2023-05-29T01:41:20;20.90;98.80
47618;DHT22;33336;36.728;-4.414;2023-05-29T01:46:25;20.90;98.90
47618;DHT22;33336;36.728;-4.414;2023-05-29T01:51:28;21.00;98.70
47618;DHT22;33336;36.728;-4.414;2023-05-29T01:56:34;21.10;98.90
47618;DHT22;33336;36.728;-4.414;2023-05-29T02:01:40;21.10;99.00
47618;DHT22;33336;36.728;-4.414;2023-05-29T02:06:43;21.10;99.40
47618;DHT22;33336;36.728;-4.414;2023-05-29T02:11:46;21.00;99.40
47618;DHT22;33336;36.728;-4.414;2023-05-29T02:16:51;20.80;99.70
47618;DHT22;33336;36.728;-4.414;2023-05-29T02:21:54;20.70;99.70
47618;DHT22;33336;36.728;-4.414;2023-05-29T02:26:57;20.80;99.80
47618;DHT22;33336;36.728;-4.414;2023-05-29T02:32:02;20.60;99.90
47618;DHT22;33336;36.728;-4.414;2023-05-29T02:37:06;20.60;99.90
47618;DHT22;33336;36.728;-4.414;2023-05-29T02:42:09;20.40;99.90
47618;DHT22;33336;36.728;-4.414;2023-05-29T02:47:14;20.60;99.90
47618;DHT22;33336;36.728;-4.414;2023-05-29T02:52:17;20.40;99.90
47618;DHT22;33336;36.728;-4.414;2023-05-29T02:57:20;20.40;99.90
47618;DHT22;33336;36.728;-4.414;2023-05-29T03:02:25;20.30;99.90
47618;DHT22;33336;36.728;-4.414;2023-05-29T03:07:28;20.50;99.90
47618;DHT22;33336;36.728;-4.414;2023-05-29T03:12:31;20.50;99.90
47618;DHT22;33336;36.728;-4.414;2023-05-29T03:17:37;20.30;99.90
47618;DHT22;33336;36.728;-4.414;2023-05-29T03:22:39;20.40;99.90
47618;DHT22;33336;36.728;-4.414;2023-05-29T03:27:42;20.20;99.90
47618;DHT22;33336;36.728;-4.414;2023-05-29T03:32:46;20.20;99.90
47618;DHT22;33336;36.728;-4.414;2023-05-29T03:37:49;19.90;99.90
47618;DHT22;33336;36.728;-4.414;2023-05-29T03:42:54;20.10;99.90
47618;DHT22;33336;36.728;-4.414;2023-05-29T03:47:59;20.10;99.90
47618;DHT22;33336;36.728;-4.414;2023-05-29T03:53:01;20.40;99.90
47618;DHT22;33336;36.728;-4.414;2023-05-29T03:58:05;19.90;99.90
47618;DHT22;33336;36.728;-4.414;2023-05-29T04:03:10;19.60;99.90
47618;DHT22;33336;36.728;-4.414;2023-05-29T04:08:13;19.60;99.90
47618;DHT22;33336;36.728;-4.414;2023-05-29T04:13:16;20.00;99.90
47618;DHT22;33336;36.728;-4.414;2023-05-29T04:18:21;20.00;99.90
47618;DHT22;33336;36.728;-4.414;2023-05-29T04:23:24;20.00;99.90
47618;DHT22;33336;36.728;-4.414;2023-05-29T04:28:27;19.90;99.90
47618;DHT22;33336;36.728;-4.414;2023-05-29T04:33:32;20.00;99.90
47618;DHT22;33336;36.728;-4.414;2023-05-29T04:38:38;19.90;99.90
47618;DHT22;33336;36.728;-4.414;2023-05-29T04:43:40;20.10;99.90
47618;DHT22;33336;36.728;-4.414;2023-05-29T04:48:45;20.00;99.90
47618;DHT22;33336;36.728;-4.414;2023-05-29T04:53:50;20.00;99.90
47618;DHT22;33336;36.728;-4.414;2023-05-29T04:58:54;20.00;99.90
47618;DHT22;33336;36.728;-4.414;2023-05-29T05:04:01;20.10;99.90
47618;DHT22;33336;36.728;-4.414;2023-05-29T05:09:04;20.10;99.90
47618;DHT22;33336;36.728;-4.414;2023-05-29T05:14:07;19.90;99.90
47618;DHT22;33336;36.728;-4.414;2023-05-29T05:19:13;20.00;99.90
47618;DHT22;33336;36.728;-4.414;2023-05-29T05:24:15;19.80;99.90
47618;DHT22;33336;36.728;-4.414;2023-05-29T05:29:18;19.90;99.90
47618;DHT22;33336;36.728;-4.414;2023-05-29T05:34:23;19.90;99.90
47618;DHT22;33336;36.728;-4.414;2023-05-29T05:39:26;19.90;99.90
47618;DHT22;33336;36.728;-4.414;2023-05-29T05:44:29;19.70;99.90
47618;DHT22;33336;36.728;-4.414;2023-05-29T05:49:34;20.00;99.90
47618;DHT22;33336;36.728;-4.414;2023-05-29T05:54:37;20.20;99.90
47618;DHT22;33336;36.728;-4.414;2023-05-29T05:59:40;20.10;99.90
47618;DHT22;33336;36.728;-4.414;2023-05-29T06:04:45;20.20;99.90
47618;DHT22;33336;36.728;-4.414;2023-05-29T06:09:48;20.60;99.90
47618;DHT22;33336;36.728;-4.414;2023-05-29T06:14:51;20.60;99.90
47618;DHT22;33336;36.728;-4.414;2023-05-29T06:19:56;20.60;99.90
47618;DHT22;33336;36.728;-4.414;2023-05-29T06:24:58;20.50;99.90
47618;DHT22;33336;36.728;-4.414;2023-05-29T06:30:03;20.40;99.90
47618;DHT22;33336;36.728;-4.414;2023-05-29T06:35:08;20.60;99.90
47618;DHT22;33336;36.728;-4.414;2023-05-29T06:40:15;20.90;99.90
47618;DHT22;33336;36.728;-4.414;2023-05-29T06:45:18;20.80;99.90
47618;DHT22;33336;36.728;-4.414;2023-05-29T06:50:23;21.20;99.90
47618;DHT22;33336;36.728;-4.414;2023-05-29T06:55:26;21.10;99.90
47618;DHT22;33336;36.728;-4.414;2023-05-29T07:00:29;21.00;99.90
47618;DHT22;33336;36.728;-4.414;2023-05-29T07:05:37;21.20;99.90
47618;DHT22;33336;36.728;-4.414;2023-05-29T07:10:40;21.00;99.90
47618;DHT22;33336;36.728;-4.414;2023-05-29T07:15:42;21.20;99.90
47618;DHT22;33336;36.728;-4.414;2023-05-29T07:20:49;21.30;99.90
47618;DHT22;33336;36.728;-4.414;2023-05-29T07:25:52;21.50;99.90
47618;DHT22;33336;36.728;-4.414;2023-05-29T07:30:55;21.30;99.90
47618;DHT22;33336;36.728;-4.414;2023-05-29T07:36:00;21.70;99.90
47618;DHT22;33336;36.728;-4.414;2023-05-29T07:41:03;21.60;99.90
47618;DHT22;33336;36.728;-4.414;2023-05-29T07:46:06;21.80;99.90
47618;DHT22;33336;36.728;-4.414;2023-05-29T07:51:11;21.90;99.90
47618;DHT22;33336;36.728;-4.414;2023-05-29T07:56:14;22.00;99.90
47618;DHT22;33336;36.728;-4.414;2023-05-29T08:01:18;22.30;99.80
47618;DHT22;33336;36.728;-4.414;2023-05-29T08:06:23;22.50;99.50
47618;DHT22;33336;36.728;-4.414;2023-05-29T08:11:27;22.60;98.90
47618;DHT22;33336;36.728;-4.414;2023-05-29T08:16:30;22.80;98.20
47618;DHT22;33336;36.728;-4.414;2023-05-29T08:21:35;22.90;98.50
47618;DHT22;33336;36.728;-4.414;2023-05-29T08:26:39;23.20;98.40
47618;DHT22;33336;36.728;-4.414;2023-05-29T08:31:42;23.00;98.10
47618;DHT22;33336;36.728;-4.414;2023-05-29T08:36:47;23.20;98.30
47618;DHT22;33336;36.728;-4.414;2023-05-29T08:41:56;23.30;97.50
47618;DHT22;33336;36.728;-4.414;2023-05-29T08:47:03;23.40;97.60
47618;DHT22;33336;36.728;-4.414;2023-05-29T08:52:11;23.50;96.80
47618;DHT22;33336;36.728;-4.414;2023-05-29T08:57:14;23.60;97.10
47618;DHT22;33336;36.728;-4.414;2023-05-29T09:02:17;23.70;96.70
47618;DHT22;33336;36.728;-4.414;2023-05-29T09:07:22;24.10;96.50
47618;DHT22;33336;36.728;-4.414;2023-05-29T09:12:27;24.00;96.50
47618;DHT22;33336;36.728;-4.414;2023-05-29T09:17:31;24.20;95.80
47618;DHT22;33336;36.728;-4.414;2023-05-29T09:22:36;24.10;95.80
47618;DHT22;33336;36.728;-4.414;2023-05-29T09:27:39;24.30;95.40
47618;DHT22;33336;36.728;-4.414;2023-05-29T09:32:42;24.60;94.70
47618;DHT22;33336;36.728;-4.414;2023-05-29T09:37:47;24.60;94.30
47618;DHT22;33336;36.728;-4.414;2023-05-29T09:42:52;24.70;94.20
47618;DHT22;33336;36.728;-4.414;2023-05-29T09:47:55;24.60;93.30
47618;DHT22;33336;36.728;-4.414;2023-05-29T09:53:00;24.80;93.00
47618;DHT22;33336;36.728;-4.414;2023-05-29T09:58:05;24.90;93.10
47618;DHT22;33336;36.728;-4.414;2023-05-29T10:03:09;25.00;92.30
47618;DHT22;33336;36.728;-4.414;2023-05-29T10:08:15;25.00;92.30
47618;DHT22;33336;36.728;-4.414;2023-05-29T10:13:18;24.90;92.10
47618;DHT22;33336;36.728;-4.414;2023-05-29T10:18:27;25.10;91.70
47618;DHT22;33336;36.728;-4.414;2023-05-29T10:23:37;25.20;91.20
47618;DHT22;33336;36.728;-4.414;2023-05-29T10:28:44;25.40;90.90
47618;DHT22;33336;36.728;-4.414;2023-05-29T10:34:01;25.50;91.00
47618;DHT22;33336;36.728;-4.414;2023-05-29T10:39:06;25.60;90.80
47618;DHT22;33336;36.728;-4.414;2023-05-29T10:44:38;25.70;90.50
47618;DHT22;33336;36.728;-4.414;2023-05-29T10:49:49;25.80;90.70
47618;DHT22;33336;36.728;-4.414;2023-05-29T10:54:54;25.80;90.20
47618;DHT22;33336;36.728;-4.414;2023-05-29T11:00:08;26.50;89.00
47618;DHT22;33336;36.728;-4.414;2023-05-29T11:05:22;26.40;89.60
47618;DHT22;33336;36.728;-4.414;2023-05-29T11:10:44;26.60;89.50
47618;DHT22;33336;36.728;-4.414;2023-05-29T11:15:48;26.40;88.30
47618;DHT22;33336;36.728;-4.414;2023-05-29T11:20:56;26.60;88.80
47618;DHT22;33336;36.728;-4.414;2023-05-29T11:26:01;26.70;87.50
47618;DHT22;33336;36.728;-4.414;2023-05-29T11:31:08;26.80;86.10
47618;DHT22;33336;36.728;-4.414;2023-05-29T11:36:12;26.70;87.00
47618;DHT22;33336;36.728;-4.414;2023-05-29T11:41:18;27.20;85.90
47618;DHT22;33336;36.728;-4.414;2023-05-29T11:46:22;27.30;83.40
47618;DHT22;33336;36.728;-4.414;2023-05-29T11:51:28;27.40;84.20
47618;DHT22;33336;36.728;-4.414;2023-05-29T11:56:32;27.50;81.10
47618;DHT22;33336;36.728;-4.414;2023-05-29T12:01:35;28.50;82.20
47618;DHT22;33336;36.728;-4.414;2023-05-29T12:06:38;28.40;80.30
47618;DHT22;33336;36.728;-4.414;2023-05-29T12:11:44;28.80;81.50
47618;DHT22;33336;36.728;-4.414;2023-05-29T12:16:48;28.80;89.20
47618;DHT22;33336;36.728;-4.414;2023-05-29T12:21:51;27.50;92.10
47618;DHT22;33336;36.728;-4.414;2023-05-29T12:26:56;26.80;92.90
47618;DHT22;33336;36.728;-4.414;2023-05-29T12:31:59;26.30;94.10
47618;DHT22;33336;36.728;-4.414;2023-05-29T12:37:06;26.00;94.00
47618;DHT22;33336;36.728;-4.414;2023-05-29T12:42:14;25.80;95.00
47618;DHT22;33336;36.728;-4.414;2023-05-29T12:47:23;26.40;93.60
47618;DHT22;33336;36.728;-4.414;2023-05-29T12:52:26;26.40;93.30
47618;DHT22;33336;36.728;-4.414;2023-05-29T12:57:30;25.70;94.10
47618;DHT22;33336;36.728;-4.414;2023-05-29T13:02:33;26.60;93.30
47618;DHT22;33336;36.728;-4.414;2023-05-29T13:07:36;26.50;94.30
47618;DHT22;33336;36.728;-4.414;2023-05-29T13:12:41;26.40;95.30
47618;DHT22;33336;36.728;-4.414;2023-05-29T13:17:44;27.50;93.90
47618;DHT22;33336;36.728;-4.414;2023-05-29T13:22:48;27.90;94.10
47618;DHT22;33336;36.728;-4.414;2023-05-29T13:27:53;26.30;95.90
47618;DHT22;33336;36.728;-4.414;2023-05-29T13:32:56;26.60;95.80
47618;DHT22;33336;36.728;-4.414;2023-05-29T13:37:59;27.20;95.40
47618;DHT22;33336;36.728;-4.414;2023-05-29T13:43:03;27.60;94.80
47618;DHT22;33336;36.728;-4.414;2023-05-29T13:48:07;28.00;94.30
47618;DHT22;33336;36.728;-4.414;2023-05-29T13:53:10;27.90;94.00
47618;DHT22;33336;36.728;-4.414;2023-05-29T13:58:14;27.40;94.30
47618;DHT22;33336;36.728;-4.414;2023-05-29T14:03:17;27.20;94.30
47618;DHT22;33336;36.728;-4.414;2023-05-29T14:08:23;27.30;94.20
47618;DHT22;33336;36.728;-4.414;2023-05-29T14:13:28;27.40;93.60
47618;DHT22;33336;36.728;-4.414;2023-05-29T14:18:31;26.80;94.10
47618;DHT22;33336;36.728;-4.414;2023-05-29T14:23:34;26.10;95.20
47618;DHT22;33336;36.728;-4.414;2023-05-29T14:28:38;26.20;95.20
47618;DHT22;33336;36.728;-4.414;2023-05-29T14:33:41;25.90;95.50
47618;DHT22;33336;36.728;-4.414;2023-05-29T14:38:45;26.40;95.80
47618;DHT22;33336;36.728;-4.414;2023-05-29T14:43:52;27.30;95.70
47618;DHT22;33336;36.728;-4.414;2023-05-29T14:49:00;26.90;95.00
47618;DHT22;33336;36.728;-4.414;2023-05-29T14:54:03;26.20;95.30
47618;DHT22;33336;36.728;-4.414;2023-05-29T14:59:07;26.00;95.10
47618;DHT22;33336;36.728;-4.414;2023-05-29T15:04:10;25.60;95.60
47618;DHT22;33336;36.728;-4.414;2023-05-29T15:09:13;26.10;94.60
47618;DHT22;33336;36.728;-4.414;2023-05-29T15:14:18;26.10;94.40
47618;DHT22;33336;36.728;-4.414;2023-05-29T15:19:22;27.10;93.90
47618;DHT22;33336;36.728;-4.414;2023-05-29T15:24:26;26.70;93.70
47618;DHT22;33336;36.728;-4.414;2023-05-29T15:29:32;26.80;94.60
47618;DHT22;33336;36.728;-4.414;2023-05-29T15:34:36;26.70;94.40
47618;DHT22;33336;36.728;-4.414;2023-05-29T15:39:41;27.10;94.40
47618;DHT22;33336;36.728;-4.414;2023-05-29T15:44:46;26.80;94.00
47618;DHT22;33336;36.728;-4.414;2023-05-29T15:49:49;26.40;94.30
47618;DHT22;33336;36.728;-4.414;2023-05-29T15:54:53;26.10;94.90
47618;DHT22;33336;36.728;-4.414;2023-05-29T15:59:57;26.10;94.80
47618;DHT22;33336;36.728;-4.414;2023-05-29T16:05:00;26.60;95.40
47618;DHT22;33336;36.728;-4.414;2023-05-29T16:10:03;30.30;94.40
47618;DHT22;33336;36.728;-4.414;2023-05-29T16:15:09;30.40;92.30
47618;DHT22;33336;36.728;-4.414;2023-05-29T16:20:12;31.90;91.80
47618;DHT22;33336;36.728;-4.414;2023-05-29T16:25:16;30.00;91.90
47618;DHT22;33336;36.728;-4.414;2023-05-29T16:30:20;27.50;93.80
47618;DHT22;33336;36.728;-4.414;2023-05-29T16:35:25;27.10;93.70
47618;DHT22;33336;36.728;-4.414;2023-05-29T16:40:28;26.80;94.20
47618;DHT22;33336;36.728;-4.414;2023-05-29T16:45:32;26.40;94.30
47618;DHT22;33336;36.728;-4.414;2023-05-29T16:50:36;26.60;94.20
47618;DHT22;33336;36.728;-4.414;2023-05-29T16:55:39;26.40;94.50
47618;DHT22;33336;36.728;-4.414;2023-05-29T17:00:43;26.30;93.70
47618;DHT22;33336;36.728;-4.414;2023-05-29T17:05:47;26.80;93.10
47618;DHT22;33336;36.728;-4.414;2023-05-29T17:10:50;27.50;93.20
47618;DHT22;33336;36.728;-4.414;2023-05-29T17:15:55;27.90;92.70
47618;DHT22;33336;36.728;-4.414;2023-05-29T17:20:58;28.50;92.60
47618;DHT22;33336;36.728;-4.414;2023-05-29T17:26:01;28.90;92.30
47618;DHT22;33336;36.728;-4.414;2023-05-29T17:31:06;29.00;92.30
47618;DHT22;33336;36.728;-4.414;2023-05-29T17:36:09;30.10;91.80
47618;DHT22;33336;36.728;-4.414;2023-05-29T17:41:13;30.40;91.60
47618;DHT22;33336;36.728;-4.414;2023-05-29T17:46:17;32.00;91.40
47618;DHT22;33336;36.728;-4.414;2023-05-29T17:51:20;34.30;89.40
47618;DHT22;33336;36.728;-4.414;2023-05-29T17:56:26;37.00;86.50
47618;DHT22;33336;36.728;-4.414;2023-05-29T18:01:30;40.60;81.90
47618;DHT22;33336;36.728;-4.414;2023-05-29T18:06:33;41.20;79.80
47618;DHT22;33336;36.728;-4.414;2023-05-29T18:11:36;41.70;75.70
47618;DHT22;33336;36.728;-4.414;2023-05-29T18:16:43;38.80;75.50
47618;DHT22;33336;36.728;-4.414;2023-05-29T18:21:46;36.20;77.50
47618;DHT22;33336;36.728;-4.414;2023-05-29T18:26:50;34.60;79.00
47618;DHT22;33336;36.728;-4.414;2023-05-29T18:31:54;33.00;81.30
47618;DHT22;33336;36.728;-4.414;2023-05-29T18:36:57;32.00;82.70
47618;DHT22;33336;36.728;-4.414;2023-05-29T18:42:00;31.50;83.30
47618;DHT22;33336;36.728;-4.414;2023-05-29T18:47:06;30.80;84.80
47618;DHT22;33336;36.728;-4.414;2023-05-29T18:52:08;30.70;84.80
47618;DHT22;33336;36.728;-4.414;2023-05-29T18:57:12;30.40;85.90
47618;DHT22;33336;36.728;-4.414;2023-05-29T19:02:16;31.20;85.80
47618;DHT22;33336;36.728;-4.414;2023-05-29T19:07:19;31.20;84.90
47618;DHT22;33336;36.728;-4.414;2023-05-29T19:12:22;30.50;85.90
47618;DHT22;33336;36.728;-4.414;2023-05-29T19:17:26;29.60;87.90
47618;DHT22;33336;36.728;-4.414;2023-05-29T19:22:29;28.80;88.80
47618;DHT22;33336;36.728;-4.414;2023-05-29T19:27:32;28.50;90.00
47618;DHT22;33336;36.728;-4.414;2023-05-29T19:32:37;28.00;89.30
47618;DHT22;33336;36.728;-4.414;2023-05-29T19:37:40;27.50;90.20
47618;DHT22;33336;36.728;-4.414;2023-05-29T19:42:43;26.90;90.80
47618;DHT22;33336;36.728;-4.414;2023-05-29T19:47:47;26.60;86.20
47618;DHT22;33336;36.728;-4.414;2023-05-29T19:52:50;26.70;83.50
47618;DHT22;33336;36.728;-4.414;2023-05-29T19:57:54;26.30;81.80
47618;DHT22;33336;36.728;-4.414;2023-05-29T20:02:58;25.80;82.10
47618;DHT22;33336;36.728;-4.414;2023-05-29T20:08:01;25.80;82.00
47618;DHT22;33336;36.728;-4.414;2023-05-29T20:13:04;25.50;81.30
47618;DHT22;33336;36.728;-4.414;2023-05-29T20:18:08;25.50;81.00
47618;DHT22;33336;36.728;-4.414;2023-05-29T20:23:11;25.50;81.50
47618;DHT22;33336;36.728;-4.414;2023-05-29T20:28:14;25.50;81.30
47618;DHT22;33336;36.728;-4.414;2023-05-29T20:33:18;25.00;81.60
47618;DHT22;33336;36.728;-4.414;2023-05-29T20:38:22;24.70;82.70
47618;DHT22;33336;36.728;-4.414;2023-05-29T20:43:25;25.10;82.80
47618;DHT22;33336;36.728;-4.414;2023-05-29T20:48:33;25.30;82.70
47618;DHT22;33336;36.728;-4.414;2023-05-29T20:53:36;25.40;82.70
47618;DHT22;33336;36.728;-4.414;2023-05-29T20:58:39;25.00;83.50
47618;DHT22;33336;36.728;-4.414;2023-05-29T21:03:43;25.00;85.00
47618;DHT22;33336;36.728;-4.414;2023-05-29T21:08:47;24.70;86.20
47618;DHT22;33336;36.728;-4.414;2023-05-29T21:13:50;24.50;86.60
47618;DHT22;33336;36.728;-4.414;2023-05-29T21:18:58;24.30;87.80
47618;DHT22;33336;36.728;-4.414;2023-05-29T21:24:01;24.40;87.60
47618;DHT22;33336;36.728;-4.414;2023-05-29T21:29:12;23.90;88.80
47618;DHT22;33336;36.728;-4.414;2023-05-29T21:34:16;23.40;90.00
47618;DHT22;33336;36.728;-4.414;2023-05-29T21:39:20;23.60;90.00
47618;DHT22;33336;36.728;-4.414;2023-05-29T21:44:23;23.70;90.00
47618;DHT22;33336;36.728;-4.414;2023-05-29T21:49:29;23.60;90.00
47618;DHT22;33336;36.728;-4.414;2023-05-29T21:54:32;23.60;90.00
47618;DHT22;33336;36.728;-4.414;2023-05-29T21:59:36;23.60;90.00
47618;DHT22;33336;36.728;-4.414;2023-05-29T22:04:45;23.30;90.30
47618;DHT22;33336;36.728;-4.414;2023-05-29T22:09:52;23.10;90.70
47618;DHT22;33336;36.728;-4.414;2023-05-29T22:14:55;23.20;90.60
47618;DHT22;33336;36.728;-4.414;2023-05-29T22:19:59;22.90;91.00
47618;DHT22;33336;36.728;-4.414;2023-05-29T22:25:32;22.70;91.30
47618;DHT22;33336;36.728;-4.414;2023-05-29T22:30:36;22.80;91.20
47618;DHT22;33336;36.728;-4.414;2023-05-29T22:35:41;22.70;91.20
47618;DHT22;33336;36.728;-4.414;2023-05-29T22:40:44;22.70;91.50
47618;DHT22;33336;36.728;-4.414;2023-05-29T22:45:48;22.70;91.50
47618;DHT22;33336;36.728;-4.414;2023-05-29T22:50:52;22.70;91.60
47618;DHT22;33336;36.728;-4.414;2023-05-29T22:55:56;22.60;91.80
47618;DHT22;33336;36.728;-4.414;2023-05-29T23:00:59;22.60;91.70
47618;DHT22;33336;36.728;-4.414;2023-05-29T23:06:05;22.90;91.60
47618;DHT22;33336;36.728;-4.414;2023-05-29T23:11:10;22.50;92.10
47618;DHT22;33336;36.728;-4.414;2023-05-29T23:16:13;22.30;92.50
47618;DHT22;33336;36.728;-4.414;2023-05-29T23:21:19;22.30;92.80
47618;DHT22;33336;36.728;-4.414;2023-05-29T23:26:24;22.30;93.00
47618;DHT22;33336;36.728;-4.414;2023-05-29T23:31:27;22.40;92.80
47618;DHT22;33336;36.728;-4.414;2023-05-29T23:36:32;22.40;93.10
47618;DHT22;33336;36.728;-4.414;2023-05-29T23:41:35;22.30;93.10
47618;DHT22;33336;36.728;-4.414;2023-05-29T23:46:42;22.30;93.10
47618;DHT22;33336;36.728;-4.414;2023-05-29T23:51:46;22.00;93.50
47618;DHT22;33336;36.728;-4.414;2023-05-29T23:56:50;21.70;93.80
